sensor_id;sensor_type;location;lat;lon;timestamp;noise_LAeq;noise_LA_min;noise_LA_max;noise_LA01;noise_LA95
79200;Laerm;68628;48.714;9.472;2023-09-19T00:00:43;50.96;50.13;52.73;;
79200;Laerm;68628;48.714;9.472;2023-09-19T00:03:10;50.89;50.06;52.90;;
79200;Laerm;68628;48.714;9.472;2023-09-19T00:05:38;51.00;50.18;53.27;;
79200;Laerm;68628;48.714;9.472;2023-09-19T00:08:10;50.96;49.74;55.76;;
79200;Laerm;68628;48.714;9.472;2023-09-19T00:10:41;50.99;49.79;52.85;;
79200;Laerm;68628;48.714;9.472;2023-09-19T00:13:08;50.61;49.77;51.74;;
79200;Laerm;68628;48.714;9.472;2023-09-19T00:15:50;50.65;49.91;52.15;;
79200;Laerm;68628;48.714;9.472;2023-09-19T00:18:17;50.59;49.88;51.25;;
79200;Laerm;68628;48.714;9.472;2023-09-19T00:20:44;50.88;49.91;54.03;;
79200;Laerm;68628;48.714;9.472;2023-09-19T00:23:13;51.20;49.84;53.81;;
79200;Laerm;68628;48.714;9.472;2023-09-19T00:25:41;50.99;50.11;54.79;;
79200;Laerm;68628;48.714;9.472;2023-09-19T00:28:07;50.95;49.93;53.76;;
79200;Laerm;68628;48.714;9.472;2023-09-19T00:30:36;51.18;50.16;52.90;;
79200;Laerm;68628;48.714;9.472;2023-09-19T00:33:04;52.40;50.22;55.27;;
79200;Laerm;68628;48.714;9.472;2023-09-19T00:35:31;51.83;50.37;54.70;;
79200;Laerm;68628;48.714;9.472;2023-09-19T00:37:56;53.33;50.24;59.41;;
79200;Laerm;68628;48.714;9.472;2023-09-19T00:40:22;51.06;50.14;54.14;;
79200;Laerm;68628;48.714;9.472;2023-09-19T00:42:48;50.56;49.74;52.03;;
79200;Laerm;68628;48.714;9.472;2023-09-19T00:45:16;50.59;49.90;51.91;;
79200;Laerm;68628;48.714;9.472;2023-09-19T00:47:45;50.65;50.09;51.36;;
79200;Laerm;68628;48.714;9.472;2023-09-19T00:50:14;50.70;49.99;51.85;;
79200;Laerm;68628;48.714;9.472;2023-09-19T00:52:43;50.74;49.97;51.55;;
79200;Laerm;68628;48.714;9.472;2023-09-19T00:55:10;50.71;49.93;53.69;;
79200;Laerm;68628;48.714;9.472;2023-09-19T00:57:38;50.70;49.92;51.68;;
79200;Laerm;68628;48.714;9.472;2023-09-19T01:00:06;50.60;49.99;51.99;;
79200;Laerm;68628;48.714;9.472;2023-09-19T01:02:34;50.63;50.01;51.81;;
79200;Laerm;68628;48.714;9.472;2023-09-19T01:04:59;50.61;50.00;51.87;;
79200;Laerm;68628;48.714;9.472;2023-09-19T01:07:30;50.64;49.96;51.51;;
79200;Laerm;68628;48.714;9.472;2023-09-19T01:09:58;50.65;50.01;51.55;;
79200;Laerm;68628;48.714;9.472;2023-09-19T01:12:52;50.67;50.04;52.20;;
79200;Laerm;68628;48.714;9.472;2023-09-19T01:18:21;50.79;50.03;51.56;;
79200;Laerm;68628;48.714;9.472;2023-09-19T01:32:01;50.95;50.08;54.10;;
79200;Laerm;68628;48.714;9.472;2023-09-19T01:34:43;50.87;50.17;51.94;;
79200;Laerm;68628;48.714;9.472;2023-09-19T01:37:11;50.79;50.07;54.11;;
79200;Laerm;68628;48.714;9.472;2023-09-19T01:39:36;50.67;50.03;51.92;;
79200;Laerm;68628;48.714;9.472;2023-09-19T01:45:10;50.64;49.85;52.16;;
79200;Laerm;68628;48.714;9.472;2023-09-19T01:47:46;50.99;50.08;52.25;;
79200;Laerm;68628;48.714;9.472;2023-09-19T01:50:29;52.18;50.10;56.94;;
79200;Laerm;68628;48.714;9.472;2023-09-19T01:53:20;51.16;50.11;56.84;;
79200;Laerm;68628;48.714;9.472;2023-09-19T01:55:50;51.41;49.96;55.55;;
79200;Laerm;68628;48.714;9.472;2023-09-19T01:58:21;50.96;50.00;52.94;;
79200;Laerm;68628;48.714;9.472;2023-09-19T02:00:51;50.88;50.07;52.07;;
79200;Laerm;68628;48.714;9.472;2023-09-19T02:03:20;50.76;50.07;52.62;;
79200;Laerm;68628;48.714;9.472;2023-09-19T02:05:50;50.67;49.99;52.24;;
79200;Laerm;68628;48.714;9.472;2023-09-19T02:08:21;50.70;49.94;51.63;;
79200;Laerm;68628;48.714;9.472;2023-09-19T02:10:49;50.91;49.87;52.19;;
79200;Laerm;68628;48.714;9.472;2023-09-19T02:13:19;51.26;49.99;53.46;;
79200;Laerm;68628;48.714;9.472;2023-09-19T02:15:45;51.22;50.07;53.24;;
79200;Laerm;68628;48.714;9.472;2023-09-19T02:18:14;51.30;49.96;52.99;;
79200;Laerm;68628;48.714;9.472;2023-09-19T02:20:40;51.00;49.99;54.31;;
79200;Laerm;68628;48.714;9.472;2023-09-19T02:23:06;50.79;50.01;53.05;;
79200;Laerm;68628;48.714;9.472;2023-09-19T02:25:31;50.70;50.06;53.06;;
79200;Laerm;68628;48.714;9.472;2023-09-19T02:27:57;50.68;49.99;52.64;;
79200;Laerm;68628;48.714;9.472;2023-09-19T02:30:27;50.70;49.82;54.07;;
79200;Laerm;68628;48.714;9.472;2023-09-19T02:32:52;51.22;49.86;59.06;;
79200;Laerm;68628;48.714;9.472;2023-09-19T02:35:18;51.84;50.02;57.90;;
79200;Laerm;68628;48.714;9.472;2023-09-19T02:37:46;51.52;49.87;57.18;;
79200;Laerm;68628;48.714;9.472;2023-09-19T02:40:12;50.64;49.74;51.92;;
79200;Laerm;68628;48.714;9.472;2023-09-19T02:42:54;51.01;50.06;53.64;;
79200;Laerm;68628;48.714;9.472;2023-09-19T02:45:20;50.98;50.05;53.04;;
79200;Laerm;68628;48.714;9.472;2023-09-19T02:47:46;50.98;50.16;52.92;;
79200;Laerm;68628;48.714;9.472;2023-09-19T02:50:13;50.53;49.82;54.62;;
79200;Laerm;68628;48.714;9.472;2023-09-19T02:52:42;51.20;49.96;54.88;;
79200;Laerm;68628;48.714;9.472;2023-09-19T02:55:13;51.05;50.00;52.51;;
79200;Laerm;68628;48.714;9.472;2023-09-19T02:57:40;50.61;49.61;51.71;;
79200;Laerm;68628;48.714;9.472;2023-09-19T03:00:09;50.60;49.90;51.57;;
79200;Laerm;68628;48.714;9.472;2023-09-19T03:02:36;50.57;49.89;52.34;;
79200;Laerm;68628;48.714;9.472;2023-09-19T03:05:02;50.71;49.94;51.79;;
79200;Laerm;68628;48.714;9.472;2023-09-19T03:07:28;50.88;50.07;51.77;;
79200;Laerm;68628;48.714;9.472;2023-09-19T03:09:54;50.72;50.05;51.48;;
79200;Laerm;68628;48.714;9.472;2023-09-19T03:12:20;50.64;50.05;51.55;;
79200;Laerm;68628;48.714;9.472;2023-09-19T03:14:46;50.64;50.10;51.43;;
79200;Laerm;68628;48.714;9.472;2023-09-19T03:17:11;50.61;50.00;51.31;;
79200;Laerm;68628;48.714;9.472;2023-09-19T03:19:39;50.59;49.87;51.20;;
79200;Laerm;68628;48.714;9.472;2023-09-19T03:22:04;50.56;49.95;51.26;;
79200;Laerm;68628;48.714;9.472;2023-09-19T03:24:30;50.58;49.85;51.25;;
79200;Laerm;68628;48.714;9.472;2023-09-19T03:26:58;50.59;49.93;51.50;;
79200;Laerm;68628;48.714;9.472;2023-09-19T03:29:23;50.81;50.02;52.12;;
79200;Laerm;68628;48.714;9.472;2023-09-19T03:31:49;50.55;49.80;54.84;;
79200;Laerm;68628;48.714;9.472;2023-09-19T03:34:14;50.53;49.87;51.19;;
79200;Laerm;68628;48.714;9.472;2023-09-19T03:36:40;50.55;49.88;51.94;;
79200;Laerm;68628;48.714;9.472;2023-09-19T03:39:06;50.54;49.85;51.43;;
79200;Laerm;68628;48.714;9.472;2023-09-19T03:41:32;51.03;49.97;54.62;;
79200;Laerm;68628;48.714;9.472;2023-09-19T03:43:58;50.96;49.97;54.47;;
79200;Laerm;68628;48.714;9.472;2023-09-19T03:46:24;50.63;49.80;53.18;;
79200;Laerm;68628;48.714;9.472;2023-09-19T03:48:50;52.38;49.92;55.98;;
79200;Laerm;68628;48.714;9.472;2023-09-19T03:51:15;51.05;50.21;51.72;;
79200;Laerm;68628;48.714;9.472;2023-09-19T03:53:41;50.84;49.96;51.87;;
79200;Laerm;68628;48.714;9.472;2023-09-19T03:56:06;51.17;49.80;54.39;;
79200;Laerm;68628;48.714;9.472;2023-09-19T03:58:33;50.50;49.61;53.49;;
79200;Laerm;68628;48.714;9.472;2023-09-19T04:01:03;50.60;49.91;51.75;;
79200;Laerm;68628;48.714;9.472;2023-09-19T04:03:28;50.47;49.62;53.25;;
79200;Laerm;68628;48.714;9.472;2023-09-19T04:06:01;50.67;49.74;52.44;;
79200;Laerm;68628;48.714;9.472;2023-09-19T04:08:26;50.75;49.97;52.29;;
79200;Laerm;68628;48.714;9.472;2023-09-19T04:10:52;50.47;49.84;51.59;;
79200;Laerm;68628;48.714;9.472;2023-09-19T04:13:18;52.76;49.64;56.79;;
79200;Laerm;68628;48.714;9.472;2023-09-19T04:15:43;54.64;49.84;57.78;;
79200;Laerm;68628;48.714;9.472;2023-09-19T04:18:11;50.91;49.74;53.19;;
79200;Laerm;68628;48.714;9.472;2023-09-19T04:20:37;51.38;50.11;53.32;;
79200;Laerm;68628;48.714;9.472;2023-09-19T04:23:02;53.24;50.12;55.98;;
79200;Laerm;68628;48.714;9.472;2023-09-19T04:25:29;50.98;49.73;55.55;;
79200;Laerm;68628;48.714;9.472;2023-09-19T04:27:55;50.55;49.86;51.65;;
79200;Laerm;68628;48.714;9.472;2023-09-19T04:30:20;50.54;49.85;51.48;;
79200;Laerm;68628;48.714;9.472;2023-09-19T04:32:46;50.44;49.64;51.50;;
79200;Laerm;68628;48.714;9.472;2023-09-19T04:35:16;50.44;49.69;51.95;;
79200;Laerm;68628;48.714;9.472;2023-09-19T04:37:41;50.64;49.61;53.95;;
79200;Laerm;68628;48.714;9.472;2023-09-19T04:40:10;50.73;49.84;53.47;;
79200;Laerm;68628;48.714;9.472;2023-09-19T04:42:40;50.60;49.83;51.84;;
79200;Laerm;68628;48.714;9.472;2023-09-19T04:45:06;50.83;49.91;52.48;;
79200;Laerm;68628;48.714;9.472;2023-09-19T04:47:32;50.92;50.21;51.81;;
79200;Laerm;68628;48.714;9.472;2023-09-19T04:49:57;50.82;49.83;52.69;;
79200;Laerm;68628;48.714;9.472;2023-09-19T04:52:24;51.14;50.09;53.01;;
79200;Laerm;68628;48.714;9.472;2023-09-19T04:54:50;50.58;49.89;51.56;;
79200;Laerm;68628;48.714;9.472;2023-09-19T04:57:15;51.22;49.94;52.59;;
79200;Laerm;68628;48.714;9.472;2023-09-19T04:59:41;51.44;50.38;53.12;;
79200;Laerm;68628;48.714;9.472;2023-09-19T05:02:07;50.86;50.11;51.71;;
79200;Laerm;68628;48.714;9.472;2023-09-19T05:04:33;50.73;49.99;51.64;;
79200;Laerm;68628;48.714;9.472;2023-09-19T05:06:59;51.04;50.05;52.18;;
79200;Laerm;68628;48.714;9.472;2023-09-19T05:09:26;50.73;49.87;52.83;;
79200;Laerm;68628;48.714;9.472;2023-09-19T05:11:51;50.46;49.83;51.26;;
79200;Laerm;68628;48.714;9.472;2023-09-19T05:14:18;50.43;49.79;51.10;;
79200;Laerm;68628;48.714;9.472;2023-09-19T05:16:44;50.72;49.88;53.88;;
79200;Laerm;68628;48.714;9.472;2023-09-19T05:19:09;50.44;49.59;51.85;;
79200;Laerm;68628;48.714;9.472;2023-09-19T05:21:37;50.40;49.40;51.67;;
79200;Laerm;68628;48.714;9.472;2023-09-19T05:24:05;50.37;49.66;51.96;;
79200;Laerm;68628;48.714;9.472;2023-09-19T05:26:32;50.59;49.71;52.82;;
79200;Laerm;68628;48.714;9.472;2023-09-19T05:28:57;51.55;50.06;52.92;;
79200;Laerm;68628;48.714;9.472;2023-09-19T05:31:23;50.74;49.92;51.50;;
79200;Laerm;68628;48.714;9.472;2023-09-19T05:33:49;50.52;49.84;51.39;;
79200;Laerm;68628;48.714;9.472;2023-09-19T05:36:15;50.56;49.77;52.12;;
79200;Laerm;68628;48.714;9.472;2023-09-19T05:38:41;51.66;50.06;55.73;;
79200;Laerm;68628;48.714;9.472;2023-09-19T05:41:07;51.75;50.06;55.08;;
79200;Laerm;68628;48.714;9.472;2023-09-19T05:43:34;52.19;50.09;55.52;;
79200;Laerm;68628;48.714;9.472;2023-09-19T05:46:03;53.74;50.05;58.85;;
79200;Laerm;68628;48.714;9.472;2023-09-19T05:48:29;54.55;49.91;58.26;;
79200;Laerm;68628;48.714;9.472;2023-09-19T05:50:54;51.37;50.14;54.02;;
79200;Laerm;68628;48.714;9.472;2023-09-19T05:53:19;50.77;49.87;51.99;;
79200;Laerm;68628;48.714;9.472;2023-09-19T05:55:45;50.79;49.98;52.11;;
79200;Laerm;68628;48.714;9.472;2023-09-19T05:58:11;51.32;50.14;53.35;;
79200;Laerm;68628;48.714;9.472;2023-09-19T06:00:40;51.16;49.93;53.26;;
79200;Laerm;68628;48.714;9.472;2023-09-19T06:03:08;50.70;49.95;53.29;;
79200;Laerm;68628;48.714;9.472;2023-09-19T06:05:33;50.72;49.98;53.92;;
79200;Laerm;68628;48.714;9.472;2023-09-19T06:07:59;50.54;49.82;51.30;;
79200;Laerm;68628;48.714;9.472;2023-09-19T06:10:26;51.26;50.10;52.49;;
79200;Laerm;68628;48.714;9.472;2023-09-19T06:12:53;51.26;50.29;52.12;;
79200;Laerm;68628;48.714;9.472;2023-09-19T06:15:21;50.98;50.08;53.94;;
79200;Laerm;68628;48.714;9.472;2023-09-19T06:17:50;50.93;50.12;51.94;;
79200;Laerm;68628;48.714;9.472;2023-09-19T06:20:17;50.85;50.19;51.91;;
79200;Laerm;68628;48.714;9.472;2023-09-19T06:22:44;50.91;50.03;53.16;;
79200;Laerm;68628;48.714;9.472;2023-09-19T06:25:12;51.09;50.15;54.39;;
79200;Laerm;68628;48.714;9.472;2023-09-19T06:27:45;50.99;49.94;56.04;;
79200;Laerm;68628;48.714;9.472;2023-09-19T06:30:11;50.68;50.04;51.74;;
79200;Laerm;68628;48.714;9.472;2023-09-19T06:32:37;50.59;49.83;51.22;;
79200;Laerm;68628;48.714;9.472;2023-09-19T06:35:03;50.57;49.84;51.87;;
79200;Laerm;68628;48.714;9.472;2023-09-19T06:37:32;50.53;49.86;51.55;;
79200;Laerm;68628;48.714;9.472;2023-09-19T06:39:59;50.69;49.99;51.34;;
79200;Laerm;68628;48.714;9.472;2023-09-19T06:42:25;50.61;49.99;51.25;;
79200;Laerm;68628;48.714;9.472;2023-09-19T06:44:51;50.72;50.02;51.67;;
79200;Laerm;68628;48.714;9.472;2023-09-19T06:47:16;50.73;50.01;51.84;;
79200;Laerm;68628;48.714;9.472;2023-09-19T06:49:42;50.65;49.84;51.38;;
79200;Laerm;68628;48.714;9.472;2023-09-19T06:52:10;50.66;49.98;51.78;;
79200;Laerm;68628;48.714;9.472;2023-09-19T06:54:36;50.65;50.04;51.57;;
79200;Laerm;68628;48.714;9.472;2023-09-19T06:57:03;50.71;49.82;51.82;;
79200;Laerm;68628;48.714;9.472;2023-09-19T06:59:28;50.75;50.08;51.84;;
79200;Laerm;68628;48.714;9.472;2023-09-19T07:01:53;50.66;49.75;51.39;;
79200;Laerm;68628;48.714;9.472;2023-09-19T07:04:19;50.67;49.74;51.62;;
79200;Laerm;68628;48.714;9.472;2023-09-19T07:06:54;50.64;49.88;51.35;;
79200;Laerm;68628;48.714;9.472;2023-09-19T07:09:19;50.62;49.97;51.30;;
79200;Laerm;68628;48.714;9.472;2023-09-19T07:11:45;50.77;49.97;52.67;;
79200;Laerm;68628;48.714;9.472;2023-09-19T07:14:11;50.63;49.95;51.55;;
79200;Laerm;68628;48.714;9.472;2023-09-19T07:16:37;50.43;49.69;51.18;;
79200;Laerm;68628;48.714;9.472;2023-09-19T07:19:04;50.42;49.82;51.26;;
79200;Laerm;68628;48.714;9.472;2023-09-19T07:21:29;50.56;49.85;51.52;;
79200;Laerm;68628;48.714;9.472;2023-09-19T07:23:55;50.70;49.82;52.17;;
79200;Laerm;68628;48.714;9.472;2023-09-19T07:26:20;50.87;49.90;52.38;;
79200;Laerm;68628;48.714;9.472;2023-09-19T07:28:46;52.62;49.82;58.00;;
79200;Laerm;68628;48.714;9.472;2023-09-19T07:31:12;52.89;50.05;56.85;;
79200;Laerm;68628;48.714;9.472;2023-09-19T07:33:39;53.08;51.04;56.38;;
79200;Laerm;68628;48.714;9.472;2023-09-19T07:36:05;51.85;49.98;55.01;;
79200;Laerm;68628;48.714;9.472;2023-09-19T07:38:31;52.31;50.53;55.28;;
79200;Laerm;68628;48.714;9.472;2023-09-19T07:41:01;54.95;50.42;63.12;;
79200;Laerm;68628;48.714;9.472;2023-09-19T07:43:28;51.81;50.02;54.73;;
79200;Laerm;68628;48.714;9.472;2023-09-19T07:45:53;51.67;50.43;54.53;;
79200;Laerm;68628;48.714;9.472;2023-09-19T07:48:19;51.70;50.20;54.50;;
79200;Laerm;68628;48.714;9.472;2023-09-19T07:50:44;51.23;49.70;53.76;;
79200;Laerm;68628;48.714;9.472;2023-09-19T07:53:10;51.14;50.06;54.02;;
79200;Laerm;68628;48.714;9.472;2023-09-19T07:55:38;51.21;50.08;53.18;;
79200;Laerm;68628;48.714;9.472;2023-09-19T07:58:07;51.26;50.06;53.29;;
79200;Laerm;68628;48.714;9.472;2023-09-19T08:00:32;51.09;49.85;54.57;;
79200;Laerm;68628;48.714;9.472;2023-09-19T08:03:00;50.99;49.66;55.99;;
79200;Laerm;68628;48.714;9.472;2023-09-19T08:05:26;54.34;49.84;59.98;;
79200;Laerm;68628;48.714;9.472;2023-09-19T08:07:52;55.42;50.36;60.59;;
79200;Laerm;68628;48.714;9.472;2023-09-19T08:10:19;55.24;50.78;58.38;;
79200;Laerm;68628;48.714;9.472;2023-09-19T08:12:46;52.86;49.77;59.24;;
79200;Laerm;68628;48.714;9.472;2023-09-19T08:15:14;50.93;49.83;52.42;;
79200;Laerm;68628;48.714;9.472;2023-09-19T08:17:40;52.06;49.93;60.88;;
79200;Laerm;68628;48.714;9.472;2023-09-19T08:20:07;51.55;49.54;62.42;;
79200;Laerm;68628;48.714;9.472;2023-09-19T08:22:32;52.14;49.68;57.78;;
79200;Laerm;68628;48.714;9.472;2023-09-19T08:24:58;51.69;49.87;54.61;;
79200;Laerm;68628;48.714;9.472;2023-09-19T08:27:24;51.31;50.06;54.04;;
79200;Laerm;68628;48.714;9.472;2023-09-19T08:29:52;51.39;49.93;54.35;;
79200;Laerm;68628;48.714;9.472;2023-09-19T08:32:18;51.29;49.87;55.17;;
79200;Laerm;68628;48.714;9.472;2023-09-19T08:34:49;51.26;50.12;54.47;;
79200;Laerm;68628;48.714;9.472;2023-09-19T08:37:14;51.63;50.04;55.26;;
79200;Laerm;68628;48.714;9.472;2023-09-19T08:39:40;51.94;49.85;54.88;;
79200;Laerm;68628;48.714;9.472;2023-09-19T08:42:06;52.20;49.93;61.73;;
79200;Laerm;68628;48.714;9.472;2023-09-19T08:44:36;53.54;51.15;56.40;;
79200;Laerm;68628;48.714;9.472;2023-09-19T08:47:09;54.69;51.33;58.26;;
79200;Laerm;68628;48.714;9.472;2023-09-19T08:49:55;57.21;50.74;64.37;;
79200;Laerm;68628;48.714;9.472;2023-09-19T08:52:32;55.17;51.70;61.08;;
79200;Laerm;68628;48.714;9.472;2023-09-19T08:55:02;55.11;51.66;60.37;;
79200;Laerm;68628;48.714;9.472;2023-09-19T08:57:36;53.97;51.41;57.62;;
79200;Laerm;68628;48.714;9.472;2023-09-19T09:00:05;53.42;50.45;57.72;;
79200;Laerm;68628;48.714;9.472;2023-09-19T09:02:38;51.92;50.31;53.67;;
79200;Laerm;68628;48.714;9.472;2023-09-19T09:05:08;51.74;50.11;53.40;;
79200;Laerm;68628;48.714;9.472;2023-09-19T09:07:36;51.54;49.96;55.91;;
79200;Laerm;68628;48.714;9.472;2023-09-19T09:10:03;51.43;50.08;54.01;;
79200;Laerm;68628;48.714;9.472;2023-09-19T09:12:29;51.21;49.94;55.17;;
79200;Laerm;68628;48.714;9.472;2023-09-19T09:14:56;51.03;49.85;57.02;;
79200;Laerm;68628;48.714;9.472;2023-09-19T09:17:26;50.73;49.82;55.26;;
79200;Laerm;68628;48.714;9.472;2023-09-19T09:19:53;50.43;49.78;51.90;;
79200;Laerm;68628;48.714;9.472;2023-09-19T09:22:19;50.99;49.59;55.84;;
79200;Laerm;68628;48.714;9.472;2023-09-19T09:24:58;51.50;49.82;54.12;;
79200;Laerm;68628;48.714;9.472;2023-09-19T09:27:26;51.35;49.81;56.91;;
79200;Laerm;68628;48.714;9.472;2023-09-19T09:29:53;51.87;49.77;59.71;;
79200;Laerm;68628;48.714;9.472;2023-09-19T09:32:28;53.72;49.75;62.53;;
79200;Laerm;68628;48.714;9.472;2023-09-19T09:34:55;52.16;50.36;54.50;;
79200;Laerm;68628;48.714;9.472;2023-09-19T09:37:22;52.82;51.15;60.21;;
79200;Laerm;68628;48.714;9.472;2023-09-19T09:42:36;51.39;49.97;54.40;;
79200;Laerm;68628;48.714;9.472;2023-09-19T09:45:21;51.87;50.09;60.31;;
79200;Laerm;68628;48.714;9.472;2023-09-19T09:47:59;51.38;50.21;61.97;;
79200;Laerm;68628;48.714;9.472;2023-09-19T09:50:36;52.38;50.02;55.19;;
79200;Laerm;68628;48.714;9.472;2023-09-19T09:53:34;51.42;49.86;54.76;;
79200;Laerm;68628;48.714;9.472;2023-09-19T09:56:07;51.16;49.84;54.39;;
79200;Laerm;68628;48.714;9.472;2023-09-19T09:58:50;51.82;50.30;54.29;;
79200;Laerm;68628;48.714;9.472;2023-09-19T10:01:20;52.77;50.10;61.58;;
79200;Laerm;68628;48.714;9.472;2023-09-19T10:03:46;53.75;50.07;61.04;;
79200;Laerm;68628;48.714;9.472;2023-09-19T10:06:17;52.80;50.11;59.80;;
79200;Laerm;68628;48.714;9.472;2023-09-19T10:09:06;51.09;49.68;57.56;;
79200;Laerm;68628;48.714;9.472;2023-09-19T10:12:05;51.31;50.22;55.42;;
79200;Laerm;68628;48.714;9.472;2023-09-19T10:14:35;54.34;50.40;60.39;;
79200;Laerm;68628;48.714;9.472;2023-09-19T10:17:05;52.24;50.31;58.13;;
79200;Laerm;68628;48.714;9.472;2023-09-19T10:19:42;52.78;50.61;57.54;;
79200;Laerm;68628;48.714;9.472;2023-09-19T10:22:12;52.13;50.20;57.26;;
79200;Laerm;68628;48.714;9.472;2023-09-19T10:24:47;51.86;50.20;56.67;;
79200;Laerm;68628;48.714;9.472;2023-09-19T10:27:13;53.37;50.33;57.54;;
79200;Laerm;68628;48.714;9.472;2023-09-19T10:29:44;54.48;51.99;57.01;;
79200;Laerm;68628;48.714;9.472;2023-09-19T10:32:14;53.47;50.54;64.12;;
79200;Laerm;68628;48.714;9.472;2023-09-19T10:34:46;55.16;50.13;66.21;;
79200;Laerm;68628;48.714;9.472;2023-09-19T10:37:13;57.73;53.66;61.61;;
79200;Laerm;68628;48.714;9.472;2023-09-19T10:39:39;58.29;52.44;73.15;;
79200;Laerm;68628;48.714;9.472;2023-09-19T10:42:08;57.49;54.38;65.23;;
79200;Laerm;68628;48.714;9.472;2023-09-19T10:44:38;56.58;52.65;59.28;;
79200;Laerm;68628;48.714;9.472;2023-09-19T10:47:09;54.62;52.29;58.15;;
79200;Laerm;68628;48.714;9.472;2023-09-19T10:49:35;54.65;52.50;57.76;;
79200;Laerm;68628;48.714;9.472;2023-09-19T10:52:01;54.15;52.32;56.19;;
79200;Laerm;68628;48.714;9.472;2023-09-19T10:54:34;54.33;51.99;57.78;;
79200;Laerm;68628;48.714;9.472;2023-09-19T10:57:02;56.04;52.15;58.53;;
79200;Laerm;68628;48.714;9.472;2023-09-19T10:59:30;54.36;51.62;56.83;;
79200;Laerm;68628;48.714;9.472;2023-09-19T11:02:15;56.20;52.80;58.77;;
79200;Laerm;68628;48.714;9.472;2023-09-19T11:04:42;55.84;52.84;58.17;;
79200;Laerm;68628;48.714;9.472;2023-09-19T11:07:12;56.16;53.09;61.06;;
79200;Laerm;68628;48.714;9.472;2023-09-19T11:15:08;53.94;51.39;56.95;;
79200;Laerm;68628;48.714;9.472;2023-09-19T11:17:36;52.86;50.54;56.89;;
79200;Laerm;68628;48.714;9.472;2023-09-19T11:30:45;53.13;50.60;60.50;;
79200;Laerm;68628;48.714;9.472;2023-09-19T11:33:20;52.63;51.48;55.12;;
79200;Laerm;68628;48.714;9.472;2023-09-19T11:49:18;60.81;52.16;67.84;;
79200;Laerm;68628;48.714;9.472;2023-09-19T11:51:51;60.44;52.16;66.53;;
79200;Laerm;68628;48.714;9.472;2023-09-19T11:54:17;59.99;52.20;66.62;;
79200;Laerm;68628;48.714;9.472;2023-09-19T11:56:48;58.69;52.06;66.28;;
79200;Laerm;68628;48.714;9.472;2023-09-19T11:59:23;57.29;51.84;64.48;;
79200;Laerm;68628;48.714;9.472;2023-09-19T12:02:00;56.69;51.54;62.78;;
79200;Laerm;68628;48.714;9.472;2023-09-19T12:04:43;58.94;52.35;65.80;;
79200;Laerm;68628;48.714;9.472;2023-09-19T12:07:16;57.26;51.31;68.57;;
79200;Laerm;68628;48.714;9.472;2023-09-19T12:09:51;53.60;51.29;57.39;;
79200;Laerm;68628;48.714;9.472;2023-09-19T12:12:28;54.90;52.67;59.23;;
79200;Laerm;68628;48.714;9.472;2023-09-19T12:15:01;54.11;50.93;59.84;;
79200;Laerm;68628;48.714;9.472;2023-09-19T12:17:35;53.83;51.62;59.74;;
79200;Laerm;68628;48.714;9.472;2023-09-19T12:20:01;52.66;50.25;57.58;;
79200;Laerm;68628;48.714;9.472;2023-09-19T12:22:40;53.47;50.35;60.23;;
79200;Laerm;68628;48.714;9.472;2023-09-19T12:25:09;53.80;51.69;56.67;;
79200;Laerm;68628;48.714;9.472;2023-09-19T12:27:47;54.18;51.92;58.13;;
79200;Laerm;68628;48.714;9.472;2023-09-19T12:30:15;58.55;53.66;61.38;;
79200;Laerm;68628;48.714;9.472;2023-09-19T12:32:43;59.46;55.83;61.72;;
79200;Laerm;68628;48.714;9.472;2023-09-19T12:35:10;58.47;55.90;60.90;;
79200;Laerm;68628;48.714;9.472;2023-09-19T12:37:45;59.27;55.55;63.04;;
79200;Laerm;68628;48.714;9.472;2023-09-19T12:40:21;59.65;56.88;62.62;;
79200;Laerm;68628;48.714;9.472;2023-09-19T12:42:49;57.55;54.51;60.08;;
79200;Laerm;68628;48.714;9.472;2023-09-19T12:45:16;55.65;53.34;57.92;;
79200;Laerm;68628;48.714;9.472;2023-09-19T12:48:21;54.98;51.86;59.17;;
79200;Laerm;68628;48.714;9.472;2023-09-19T12:53:40;53.14;51.30;55.58;;
79200;Laerm;68628;48.714;9.472;2023-09-19T12:56:15;51.87;50.38;54.73;;
79200;Laerm;68628;48.714;9.472;2023-09-19T13:01:16;53.00;50.45;56.92;;
79200;Laerm;68628;48.714;9.472;2023-09-19T13:03:42;54.71;50.99;58.34;;
79200;Laerm;68628;48.714;9.472;2023-09-19T13:06:08;54.71;51.79;57.90;;
79200;Laerm;68628;48.714;9.472;2023-09-19T13:08:37;54.89;51.69;58.20;;
79200;Laerm;68628;48.714;9.472;2023-09-19T13:11:04;56.16;50.20;59.29;;
79200;Laerm;68628;48.714;9.472;2023-09-19T13:13:43;54.93;50.17;58.83;;
79200;Laerm;68628;48.714;9.472;2023-09-19T13:16:11;55.60;52.05;58.49;;
79200;Laerm;68628;48.714;9.472;2023-09-19T13:18:48;55.88;52.93;59.01;;
79200;Laerm;68628;48.714;9.472;2023-09-19T13:21:32;56.50;53.44;59.16;;
79200;Laerm;68628;48.714;9.472;2023-09-19T13:24:23;57.38;52.64;60.05;;
79200;Laerm;68628;48.714;9.472;2023-09-19T13:26:51;56.93;52.83;60.25;;
79200;Laerm;68628;48.714;9.472;2023-09-19T13:29:17;56.21;52.67;58.70;;
79200;Laerm;68628;48.714;9.472;2023-09-19T13:31:51;55.93;52.17;58.64;;
79200;Laerm;68628;48.714;9.472;2023-09-19T13:34:21;56.72;53.55;59.75;;
79200;Laerm;68628;48.714;9.472;2023-09-19T13:36:47;56.36;53.72;58.98;;
79200;Laerm;68628;48.714;9.472;2023-09-19T13:39:14;56.71;54.40;58.89;;
79200;Laerm;68628;48.714;9.472;2023-09-19T13:41:41;57.48;54.91;59.66;;
79200;Laerm;68628;48.714;9.472;2023-09-19T13:44:08;56.98;53.01;59.15;;
79200;Laerm;68628;48.714;9.472;2023-09-19T13:46:36;57.81;55.49;60.52;;
79200;Laerm;68628;48.714;9.472;2023-09-19T13:49:02;56.99;53.52;59.22;;
79200;Laerm;68628;48.714;9.472;2023-09-19T13:51:32;56.09;51.47;58.36;;
79200;Laerm;68628;48.714;9.472;2023-09-19T13:53:58;57.24;53.71;59.91;;
79200;Laerm;68628;48.714;9.472;2023-09-19T13:56:27;58.13;55.45;60.29;;
79200;Laerm;68628;48.714;9.472;2023-09-19T13:58:54;58.92;56.63;60.99;;
79200;Laerm;68628;48.714;9.472;2023-09-19T14:01:20;58.98;56.46;61.04;;
79200;Laerm;68628;48.714;9.472;2023-09-19T14:03:46;57.09;53.21;62.24;;
79200;Laerm;68628;48.714;9.472;2023-09-19T14:06:16;56.57;53.19;58.76;;
79200;Laerm;68628;48.714;9.472;2023-09-19T14:08:44;55.12;51.19;59.13;;
79200;Laerm;68628;48.714;9.472;2023-09-19T14:11:13;57.45;52.12;61.18;;
79200;Laerm;68628;48.714;9.472;2023-09-19T14:13:41;60.47;55.00;65.12;;
79200;Laerm;68628;48.714;9.472;2023-09-19T14:16:12;62.93;57.86;65.62;;
79200;Laerm;68628;48.714;9.472;2023-09-19T14:18:38;60.50;54.54;63.51;;
79200;Laerm;68628;48.714;9.472;2023-09-19T14:21:06;60.74;56.90;64.11;;
79200;Laerm;68628;48.714;9.472;2023-09-19T14:23:36;60.16;54.12;63.01;;
79200;Laerm;68628;48.714;9.472;2023-09-19T14:26:03;56.39;50.68;60.59;;
79200;Laerm;68628;48.714;9.472;2023-09-19T14:28:30;52.88;50.91;57.56;;
79200;Laerm;68628;48.714;9.472;2023-09-19T14:30:56;52.80;50.20;58.88;;
79200;Laerm;68628;48.714;9.472;2023-09-19T14:33:22;52.35;50.46;58.65;;
79200;Laerm;68628;48.714;9.472;2023-09-19T14:35:48;54.82;50.27;63.01;;
79200;Laerm;68628;48.714;9.472;2023-09-19T14:38:14;57.53;51.54;65.88;;
79200;Laerm;68628;48.714;9.472;2023-09-19T14:40:40;55.14;50.96;65.47;;
79200;Laerm;68628;48.714;9.472;2023-09-19T14:43:07;56.86;50.74;65.99;;
79200;Laerm;68628;48.714;9.472;2023-09-19T14:45:35;54.82;50.76;64.22;;
79200;Laerm;68628;48.714;9.472;2023-09-19T14:48:01;55.12;50.80;58.63;;